createdAt,value
2023-12-09T00:00:18.145Z,100528.72
2023-12-09T00:02:44.411Z,100529.53
2023-12-09T00:05:10.588Z,100541.13
2023-12-09T00:07:36.741Z,100548.31
2023-12-09T00:10:02.957Z,100546.91
2023-12-09T00:12:29.438Z,100546.66
2023-12-09T00:14:55.893Z,100551.09
2023-12-09T00:17:22.062Z,100543.38
2023-12-09T00:19:48.317Z,100549.47
2023-12-09T00:22:14.551Z,100548.09
2023-12-09T00:24:40.733Z,100543.97
2023-12-09T00:27:06.941Z,100558.31
2023-12-09T00:29:33.131Z,100558.06
2023-12-09T00:31:59.280Z,100561.09
2023-12-09T00:34:25.461Z,100550.63
2023-12-09T00:36:51.670Z,100561.94
2023-12-09T00:39:17.900Z,100557.25
2023-12-09T00:41:44.096Z,100548.38
2023-12-09T00:44:10.268Z,100548.97
2023-12-09T00:46:36.443Z,100556.41
2023-12-09T00:49:02.703Z,100559.72
2023-12-09T00:51:29.025Z,100557.78
2023-12-09T00:53:55.210Z,100557.78
2023-12-09T00:56:33.442Z,100561.09
2023-12-09T00:59:01.510Z,100557.75
2023-12-09T01:01:27.709Z,100555.00
2023-12-09T01:03:54.048Z,100557.75
2023-12-09T01:06:20.301Z,100555.28
2023-12-09T01:08:46.456Z,100555.84
2023-12-09T01:11:12.626Z,100551.97
2023-12-09T01:13:38.788Z,100561.09
2023-12-09T01:16:04.958Z,100558.59
2023-12-09T01:18:31.260Z,100556.13
2023-12-09T01:20:57.491Z,100560.53
2023-12-09T01:23:23.671Z,100563.88
2023-12-09T01:25:49.816Z,100561.69
2023-12-09T01:28:15.972Z,100560.84
2023-12-09T01:30:42.214Z,100566.66
2023-12-09T01:33:08.486Z,100563.06
2023-12-09T01:35:34.697Z,100568.03
2023-12-09T01:38:00.861Z,100559.72
2023-12-09T01:40:27.007Z,100566.06
2023-12-09T01:42:53.169Z,100564.16
2023-12-09T01:45:19.354Z,100569.41
2023-12-09T01:47:45.568Z,100563.03
2023-12-09T01:50:11.939Z,100556.41
2023-12-09T01:52:38.264Z,100567.19
2023-12-09T01:55:04.441Z,100563.31
2023-12-09T01:57:30.734Z,100556.38
2023-12-09T01:59:57.031Z,100555.56
2023-12-09T02:02:23.358Z,100549.50
2023-12-09T02:04:49.571Z,100552.84
2023-12-09T02:07:15.761Z,100553.66
2023-12-09T02:09:41.934Z,100548.97
2023-12-09T02:12:08.136Z,100546.47
2023-12-09T02:14:34.318Z,100550.06
2023-12-09T02:17:00.516Z,100544.56
2023-12-09T02:19:26.717Z,100546.47
2023-12-09T02:21:52.875Z,100548.69
2023-12-09T02:24:19.066Z,100547.03
2023-12-09T02:26:45.293Z,100537.38
2023-12-09T02:29:11.444Z,100536.56
2023-12-09T02:31:37.635Z,100515.91
2023-12-09T02:34:04.003Z,100544.53
2023-12-09T02:36:30.273Z,100539.88
2023-12-09T02:38:56.511Z,100534.34
2023-12-09T02:41:22.692Z,100527.41
2023-12-09T02:43:48.879Z,100525.22
2023-12-09T02:46:15.049Z,100520.28
2023-12-09T02:48:41.465Z,100521.38
2023-12-09T02:51:07.760Z,100514.47
2023-12-09T02:53:34.031Z,100509.00
2023-12-09T02:56:00.203Z,100507.06
2023-12-09T02:58:26.413Z,100497.94
2023-12-09T03:00:52.612Z,100493.81
2023-12-09T03:03:18.927Z,100504.28
2023-12-09T03:05:45.178Z,100495.19
2023-12-09T03:08:11.378Z,100495.16
2023-12-09T03:10:37.587Z,100490.50
2023-12-09T03:13:03.746Z,100488.25
2023-12-09T03:15:29.920Z,100481.63
2023-12-09T03:17:56.186Z,100484.94
2023-12-09T03:20:22.426Z,100492.94
2023-12-09T03:22:48.651Z,100483.03
2023-12-09T03:25:14.853Z,100481.97
2023-12-09T03:27:41.020Z,100485.56
2023-12-09T03:30:07.233Z,100473.69
2023-12-09T03:32:33.447Z,100464.06
2023-12-09T03:34:59.647Z,100469.31
2023-12-09T03:37:25.773Z,100461.84
2023-12-09T03:39:51.937Z,100456.91
2023-12-09T03:42:18.166Z,100461.03
2023-12-09T03:44:44.340Z,100462.72
2023-12-09T03:47:18.361Z,100456.34
2023-12-09T03:49:48.410Z,100453.88
2023-12-09T03:52:17.257Z,100446.72
2023-12-09T03:54:44.908Z,100451.16
2023-12-09T03:57:11.146Z,100440.94
2023-12-09T03:59:37.354Z,100448.66
2023-12-09T04:02:03.524Z,100447.56
2023-12-09T04:04:29.703Z,100431.56
2023-12-09T04:06:55.914Z,100431.00
2023-12-09T04:09:22.100Z,100428.78
2023-12-09T04:11:48.275Z,100431.81
2023-12-09T04:14:14.438Z,100440.66
2023-12-09T04:16:40.654Z,100434.84
2023-12-09T04:19:09.132Z,100449.75
2023-12-09T04:21:36.513Z,100433.44
2023-12-09T04:24:02.690Z,100443.66
2023-12-09T04:26:28.887Z,100440.09
2023-12-09T04:28:55.031Z,100445.34
2023-12-09T04:31:21.177Z,100450.53
2023-12-09T04:33:47.388Z,100444.78
2023-12-09T04:36:13.619Z,100454.41
2023-12-09T04:38:39.770Z,100458.59
2023-12-09T04:41:05.931Z,100456.06
2023-12-09T04:43:32.126Z,100462.97
2023-12-09T04:45:58.305Z,100468.50
2023-12-09T04:48:24.646Z,100469.59
2023-12-09T04:50:50.891Z,100461.06
2023-12-09T04:53:17.038Z,100447.84
2023-12-09T04:55:43.220Z,100442.56
2023-12-09T04:58:09.371Z,100450.84
2023-12-09T05:00:35.560Z,100447.00
2023-12-09T05:03:01.795Z,100442.59
2023-12-09T05:05:28.090Z,100428.81
2023-12-09T05:07:54.301Z,100426.91
2023-12-09T05:10:20.486Z,100416.44
2023-12-09T05:12:46.662Z,100412.28
2023-12-09T05:15:12.885Z,100419.47
2023-12-09T05:17:39.240Z,100421.13
2023-12-09T05:20:05.492Z,100418.38
2023-12-09T05:22:31.671Z,100426.38
2023-12-09T05:24:57.805Z,100411.47
2023-12-09T05:27:24.018Z,100420.88
2023-12-09T05:29:50.227Z,100422.22
2023-12-09T05:32:16.377Z,100415.59
2023-12-09T05:34:42.619Z,100413.66
2023-12-09T05:37:08.872Z,100400.69
2023-12-09T05:39:35.100Z,100406.22
2023-12-09T05:42:01.362Z,100402.06
2023-12-09T05:44:27.594Z,100405.94
2023-12-09T05:46:53.754Z,100398.47
2023-12-09T05:49:19.976Z,100402.63
2023-12-09T05:51:46.184Z,100387.44
2023-12-09T05:54:12.403Z,100394.88
2023-12-09T05:56:38.563Z,100395.72
2023-12-09T05:59:04.742Z,100392.97
2023-12-09T06:01:30.986Z,100398.47
2023-12-09T06:03:57.172Z,100392.97
2023-12-09T06:06:23.432Z,100389.41
2023-12-09T06:08:49.646Z,100397.94
2023-12-09T06:11:15.791Z,100387.44
2023-12-09T06:13:41.938Z,100390.50
2023-12-09T06:16:08.077Z,100382.81
2023-12-09T06:18:34.272Z,100389.97
2023-12-09T06:21:00.510Z,100384.69
2023-12-09T06:23:26.756Z,100378.63
2023-12-09T06:25:52.898Z,100375.63
2023-12-09T06:28:19.058Z,100374.78
2023-12-09T06:30:45.305Z,100370.91
2023-12-09T06:33:11.806Z,100372.03
2023-12-09T06:35:38.150Z,100359.88
2023-12-09T06:38:04.324Z,100354.63
2023-12-09T06:40:30.511Z,100357.97
2023-12-09T06:42:56.704Z,100345.81
2023-12-09T06:45:22.931Z,100356.84
2023-12-09T06:47:49.273Z,100350.50
2023-12-09T06:50:15.648Z,100355.47
2023-12-09T06:52:41.845Z,100353.25
2023-12-09T06:55:07.991Z,100343.34
2023-12-09T06:57:34.210Z,100331.78
2023-12-09T07:00:00.495Z,100342.22
2023-12-09T07:02:33.908Z,100338.94
2023-12-09T07:05:06.289Z,100324.03
2023-12-09T07:07:32.470Z,100330.94
2023-12-09T07:09:58.633Z,100319.34
2023-12-09T07:12:25.045Z,100332.31
2023-12-09T07:14:51.366Z,100332.84
2023-12-09T07:17:17.614Z,100330.38
2023-12-09T07:19:43.918Z,100320.97
2023-12-09T07:22:10.147Z,100317.69
2023-12-09T07:24:36.330Z,100316.34
2023-12-09T07:27:02.575Z,100312.47
2023-12-09T07:29:30.912Z,100308.34
2023-12-09T07:31:58.201Z,100310.25
2023-12-09T07:34:24.504Z,100307.50
2023-12-09T07:36:50.743Z,100304.47
2023-12-09T07:39:16.958Z,100300.34
2023-12-09T07:41:43.117Z,100295.31
2023-12-09T07:44:09.311Z,100290.34
2023-12-09T07:46:35.552Z,100285.94
2023-12-09T07:49:01.913Z,100270.72
2023-12-09T07:51:28.193Z,100264.69
2023-12-09T07:53:54.354Z,100262.75
2023-12-09T07:56:20.574Z,100266.59
2023-12-09T07:58:46.799Z,100255.00
2023-12-09T08:01:13.125Z,100252.78
2023-12-09T08:03:39.477Z,100254.91
2023-12-09T08:06:05.824Z,100251.63
2023-12-09T08:08:32.007Z,100252.69
2023-12-09T08:10:58.183Z,100244.41
2023-12-09T08:13:24.361Z,100230.59
2023-12-09T08:15:50.578Z,100226.47
2023-12-09T08:18:16.872Z,100225.03
2023-12-09T08:20:43.116Z,100218.94
2023-12-09T08:23:09.292Z,100216.97
2023-12-09T08:25:35.454Z,100212.53
2023-12-09T08:28:01.623Z,100213.06
2023-12-09T08:30:27.823Z,100225.44
2023-12-09T08:32:54.094Z,100210.75
2023-12-09T08:35:20.406Z,100206.53
2023-12-09T08:37:46.579Z,100198.50
2023-12-09T08:40:12.988Z,100197.94
2023-12-09T08:42:39.371Z,100192.06
2023-12-09T08:45:05.621Z,100193.66
2023-12-09T08:47:31.852Z,100189.16
2023-12-09T08:49:58.042Z,100194.66
2023-12-09T08:52:24.208Z,100184.06
2023-12-09T08:54:50.354Z,100200.53
2023-12-09T08:57:16.741Z,100206.75
2023-12-09T08:59:42.945Z,100198.69
2023-12-09T09:02:09.130Z,100195.25
2023-12-09T09:04:35.453Z,100193.41
2023-12-09T09:07:01.679Z,100192.97
2023-12-09T09:09:27.857Z,100192.03
2023-12-09T09:11:54.039Z,100185.81
2023-12-09T09:14:20.214Z,100198.44
2023-12-09T09:16:46.348Z,100192.84
2023-12-09T09:19:12.617Z,100182.00
2023-12-09T09:21:38.845Z,100187.22
2023-12-09T09:24:05.132Z,100179.47
2023-12-09T09:26:31.305Z,100186.31
2023-12-09T09:28:57.563Z,100175.38
2023-12-09T09:31:23.767Z,100176.97
2023-12-09T09:33:50.114Z,100170.53
2023-12-09T09:36:16.449Z,100166.88
2023-12-09T09:38:42.669Z,100162.34
2023-12-09T09:41:08.813Z,100152.94
2023-12-09T09:43:34.990Z,100143.72
2023-12-09T09:46:01.212Z,100146.63
2023-12-09T09:48:27.643Z,100123.19
2023-12-09T09:50:53.923Z,100125.16
2023-12-09T09:53:20.109Z,100116.31
2023-12-09T09:55:46.258Z,100110.97
2023-12-09T09:58:12.409Z,100112.44
2023-12-09T10:00:38.649Z,100111.59
2023-12-09T10:03:05.013Z,100095.19
2023-12-09T10:05:31.183Z,100078.44
2023-12-09T10:07:57.332Z,100076.16
2023-12-09T10:10:23.512Z,100061.59
2023-12-09T10:12:49.693Z,100048.75
2023-12-09T10:15:15.961Z,100065.78
2023-12-09T10:17:42.288Z,100052.44
2023-12-09T10:20:08.626Z,100038.72
2023-12-09T10:22:34.780Z,100045.28
2023-12-09T10:25:01.018Z,100028.50
2023-12-09T10:27:27.239Z,100020.47
2023-12-09T10:29:53.452Z,100012.47
2023-12-09T10:32:19.614Z,100009.97
2023-12-09T10:34:45.851Z,100001.59
2023-12-09T10:37:12.099Z,99986.34
2023-12-09T10:39:38.307Z,99976.50
2023-12-09T10:42:04.496Z,99975.94
2023-12-09T10:44:30.667Z,99948.31
2023-12-09T10:46:56.837Z,99978.47
2023-12-09T10:49:23.084Z,99976.94
2023-12-09T10:51:49.370Z,99977.56
2023-12-09T10:54:15.988Z,99969.69
2023-12-09T10:56:42.177Z,99963.66
2023-12-09T10:59:08.832Z,99964.44
2023-12-09T11:01:35.048Z,99936.22
2023-12-09T11:04:01.340Z,99927.41
2023-12-09T11:06:27.612Z,99929.06
2023-12-09T11:08:53.834Z,99920.25
2023-12-09T11:11:20.053Z,99905.25
2023-12-09T11:13:46.284Z,99899.50
2023-12-09T11:16:12.444Z,99890.88
2023-12-09T11:18:38.760Z,99881.13
2023-12-09T11:21:05.074Z,99873.41
2023-12-09T11:23:31.260Z,99857.81
2023-12-09T11:25:57.434Z,99853.91
2023-12-09T11:28:23.633Z,99853.31
2023-12-09T11:30:49.983Z,99838.03
2023-12-09T11:33:16.553Z,99828.09
2023-12-09T11:35:42.818Z,99835.63
2023-12-09T11:38:08.963Z,99828.19
2023-12-09T11:40:35.107Z,99817.47
2023-12-09T11:43:01.309Z,99818.63
2023-12-09T11:45:27.567Z,99807.34
2023-12-09T11:47:55.882Z,99801.81
2023-12-09T11:50:23.315Z,99791.97
2023-12-09T11:52:49.475Z,99781.22
2023-12-09T11:55:15.647Z,99770.94
2023-12-09T11:57:41.843Z,99764.88
2023-12-09T12:00:08.067Z,99757.41
2023-12-09T12:02:34.257Z,99740.09
2023-12-09T12:05:00.424Z,99731.97
2023-12-09T12:07:26.603Z,99726.41
2023-12-09T12:09:52.774Z,99713.03
2023-12-09T12:12:19.004Z,99713.03
2023-12-09T12:14:45.202Z,99708.13
2023-12-09T12:17:13.544Z,99688.06
2023-12-09T12:19:40.402Z,99678.25
2023-12-09T12:22:06.780Z,99684.94
2023-12-09T12:24:32.973Z,99676.28
2023-12-09T12:26:59.195Z,99681.66
2023-12-09T12:29:25.350Z,99672.66
2023-12-09T12:31:51.514Z,99666.13
2023-12-09T12:34:17.800Z,99659.44
2023-12-09T12:36:44.067Z,99659.25
2023-12-09T12:39:10.291Z,99657.91
2023-12-09T12:41:36.475Z,99636.41
2023-12-09T12:44:02.634Z,99635.72
2023-12-09T12:46:28.782Z,99618.91
2023-12-09T12:48:55.093Z,99607.69
2023-12-09T12:51:22.018Z,99609.59
2023-12-09T12:53:48.869Z,99597.19
2023-12-09T12:56:15.052Z,99576.16
2023-12-09T12:58:41.199Z,99573.22
2023-12-09T13:01:07.410Z,99552.03
2023-12-09T13:03:33.678Z,99551.03
2023-12-09T13:05:59.930Z,99563.59
2023-12-09T13:08:26.184Z,99545.38
2023-12-09T13:10:52.726Z,99524.81
2023-12-09T13:13:18.881Z,99512.13
2023-12-09T13:15:45.132Z,99503.66
2023-12-09T13:18:11.448Z,99504.78
2023-12-09T13:20:37.688Z,99491.75
2023-12-09T13:23:03.864Z,99472.53
2023-12-09T13:25:30.069Z,99453.97
2023-12-09T13:27:56.228Z,99461.13
2023-12-09T13:30:22.412Z,99462.59
2023-12-09T13:32:48.701Z,99447.63
2023-12-09T13:35:14.937Z,99433.44
2023-12-09T13:37:41.241Z,99420.72
2023-12-09T13:40:07.472Z,99413.22
2023-12-09T13:42:33.829Z,99395.94
2023-12-09T13:45:00.333Z,99409.63
2023-12-09T13:47:26.614Z,99401.16
2023-12-09T13:49:52.892Z,99381.28
2023-12-09T13:52:19.258Z,99368.72
2023-12-09T13:54:45.479Z,99359.28
2023-12-09T13:57:11.944Z,99361.41
2023-12-09T13:59:38.171Z,99350.16
2023-12-09T14:02:04.346Z,99348.53
2023-12-09T14:04:30.608Z,99329.97
2023-12-09T14:06:56.855Z,99322.28
2023-12-09T14:09:23.123Z,99317.38
2023-12-09T14:11:49.351Z,99298.47
2023-12-09T14:14:15.526Z,99300.94
2023-12-09T14:16:41.684Z,99295.72
2023-12-09T14:19:07.909Z,99295.88
2023-12-09T14:21:34.102Z,99280.59
2023-12-09T14:24:00.427Z,99281.72
2023-12-09T14:26:26.607Z,99276.34
2023-12-09T14:28:52.811Z,99272.13
2023-12-09T14:31:18.965Z,99260.88
2023-12-09T14:33:45.419Z,99269.84
2023-12-09T14:36:11.741Z,99239.22
2023-12-09T14:38:37.934Z,99244.59
2023-12-09T14:41:04.090Z,99227.16
2023-12-09T14:43:30.257Z,99229.25
2023-12-09T14:45:56.429Z,99212.34
2023-12-09T14:48:22.822Z,99208.56
2023-12-09T14:50:49.093Z,99205.50
2023-12-09T14:53:15.301Z,99195.69
2023-12-09T14:55:41.459Z,99182.69
2023-12-09T14:58:07.654Z,99179.88
2023-12-09T15:00:34.080Z,99178.91
2023-12-09T15:03:00.311Z,99162.59
2023-12-09T15:05:26.486Z,99153.66
2023-12-09T15:07:52.669Z,99169.91
2023-12-09T15:10:18.912Z,99140.47
2023-12-09T15:12:45.111Z,99141.75
2023-12-09T15:15:11.397Z,99136.34
2023-12-09T15:17:38.797Z,99131.63
2023-12-09T15:20:05.273Z,99104.47
2023-12-09T15:22:31.503Z,99086.75
2023-12-09T15:24:57.653Z,99076.31
2023-12-09T15:27:23.824Z,99070.16
2023-12-09T15:29:49.978Z,99068.34
2023-12-09T15:32:16.125Z,99047.53
2023-12-09T15:34:42.397Z,99040.88
2023-12-09T15:37:08.601Z,99038.25
2023-12-09T15:39:34.870Z,99029.47
2023-12-09T15:42:01.128Z,99010.81
2023-12-09T15:44:27.700Z,99015.19
2023-12-09T15:46:53.830Z,98984.97
2023-12-09T15:49:20.178Z,98976.84
2023-12-09T15:51:46.443Z,98962.56
2023-12-09T15:54:12.662Z,98941.75
2023-12-09T15:56:38.828Z,98962.69
2023-12-09T15:59:05.004Z,98955.38
2023-12-09T16:01:31.240Z,98943.03
2023-12-09T16:03:57.462Z,98934.28
2023-12-09T16:06:23.656Z,98929.41
2023-12-09T16:08:49.839Z,98917.84
2023-12-09T16:11:16.006Z,98910.22
2023-12-09T16:13:42.150Z,98887.28
2023-12-09T16:16:08.300Z,98909.56
2023-12-09T16:18:34.555Z,98897.25
2023-12-09T16:21:03.213Z,98897.06
2023-12-09T16:23:29.588Z,98892.88
2023-12-09T16:25:55.786Z,98885.72
2023-12-09T16:28:21.983Z,98880.03
2023-12-09T16:30:48.524Z,98860.91
2023-12-09T16:33:14.797Z,98860.41
2023-12-09T16:35:41.039Z,98846.28
2023-12-09T16:38:10.115Z,98845.81
2023-12-09T16:40:37.089Z,98854.06
2023-12-09T16:43:03.570Z,98837.03
2023-12-09T16:45:32.783Z,98845.31
2023-12-09T16:48:02.699Z,98832.66
2023-12-09T16:50:29.751Z,98810.75
2023-12-09T16:52:56.032Z,98808.34
2023-12-09T16:55:22.370Z,98797.31
2023-12-09T16:57:48.805Z,98782.38
2023-12-09T17:00:15.221Z,98772.13
2023-12-09T17:02:41.867Z,98769.25
2023-12-09T17:05:08.248Z,98774.59
2023-12-09T17:07:34.679Z,98750.25
2023-12-09T17:10:00.889Z,98742.47
2023-12-09T17:12:27.361Z,98736.94
2023-12-09T17:14:53.649Z,98764.69
2023-12-09T17:17:19.797Z,98753.66
2023-12-09T17:19:45.999Z,98721.38
2023-12-09T17:22:12.218Z,98765.34
2023-12-09T17:24:39.517Z,98759.66
2023-12-09T17:27:05.749Z,98760.13
2023-12-09T17:29:31.898Z,98736.97
2023-12-09T17:31:58.219Z,98713.25
2023-12-09T17:34:24.482Z,98725.94
2023-12-09T17:36:52.984Z,98767.78
2023-12-09T17:39:19.169Z,98786.44
2023-12-09T17:41:45.315Z,98717.44
2023-12-09T17:44:11.493Z,98693.72
2023-12-09T17:46:37.656Z,98698.59
2023-12-09T17:49:03.991Z,98720.00
2023-12-09T17:51:30.407Z,98724.06
2023-12-09T17:53:56.594Z,98712.88
2023-12-09T17:56:22.768Z,98684.28
2023-12-09T17:58:49.025Z,98693.06
2023-12-09T18:01:15.268Z,98671.13
2023-12-09T18:03:41.535Z,98680.75
2023-12-09T18:06:07.847Z,98694.69
2023-12-09T18:08:34.038Z,98706.59
2023-12-09T18:11:00.254Z,98692.59
2023-12-09T18:13:26.463Z,98685.16
2023-12-09T18:15:52.662Z,98664.34
2023-12-09T18:18:19.023Z,98657.22
2023-12-09T18:20:45.248Z,98638.91
2023-12-09T18:23:11.558Z,98647.00
2023-12-09T18:25:37.715Z,98654.81
2023-12-09T18:28:03.983Z,98646.19
2023-12-09T18:30:30.186Z,98663.38
2023-12-09T18:32:56.420Z,98650.41
2023-12-09T18:35:22.597Z,98657.22
2023-12-09T18:37:48.756Z,98645.53
2023-12-09T18:40:14.898Z,98656.84
2023-12-09T18:42:41.139Z,98641.75
2023-12-09T18:45:07.457Z,98655.22
2023-12-09T18:47:33.655Z,98641.56
2023-12-09T18:49:59.874Z,98649.19
2023-12-09T18:52:26.265Z,98648.38
2023-12-09T18:54:52.654Z,98648.66
2023-12-09T18:57:18.837Z,98661.50
2023-12-09T18:59:45.058Z,98654.34
2023-12-09T19:02:14.917Z,98654.34
2023-12-09T19:04:43.005Z,98658.25
2023-12-09T19:07:09.493Z,98635.38
2023-12-09T19:09:35.716Z,98658.72
2023-12-09T19:12:01.900Z,98643.50
2023-12-09T19:14:28.055Z,98674.97
2023-12-09T19:16:54.217Z,98657.06
2023-12-09T19:19:23.411Z,98661.75
2023-12-09T19:21:49.849Z,98671.69
2023-12-09T19:24:16.063Z,98658.84
2023-12-09T19:26:42.226Z,98679.91
2023-12-09T19:29:08.381Z,98670.31
2023-12-09T19:31:34.568Z,98669.00
2023-12-09T19:34:00.837Z,98674.00
2023-12-09T19:36:27.091Z,98685.63
2023-12-09T19:38:53.268Z,98682.88
2023-12-09T19:41:19.429Z,98682.53
2023-12-09T19:43:45.573Z,98679.69
2023-12-09T19:46:11.781Z,98676.75
2023-12-09T19:48:38.042Z,98679.53
2023-12-09T19:51:04.281Z,98677.50
2023-12-09T19:53:30.437Z,98682.69
2023-12-09T19:55:56.616Z,98686.75
2023-12-09T19:58:22.815Z,98686.06
2023-12-09T20:00:49.066Z,98683.56
2023-12-09T20:03:15.355Z,98695.41
2023-12-09T20:05:41.571Z,98690.16
2023-12-09T20:08:07.726Z,98686.69
2023-12-09T20:10:33.896Z,98692.84
2023-12-09T20:13:00.059Z,98695.38
2023-12-09T20:15:26.261Z,98691.28
2023-12-09T20:17:52.479Z,98699.97
2023-12-09T20:20:18.673Z,98697.72
2023-12-09T20:22:44.816Z,98702.69
2023-12-09T20:25:10.997Z,98701.31
2023-12-09T20:27:37.249Z,98699.50
2023-12-09T20:30:03.434Z,98724.53
2023-12-09T20:32:29.914Z,98724.13
2023-12-09T20:34:56.257Z,98733.13
2023-12-09T20:37:22.424Z,98740.25
2023-12-09T20:39:48.748Z,98741.88
2023-12-09T20:42:15.003Z,98755.25
2023-12-09T20:44:41.178Z,98758.97
2023-12-09T20:47:07.442Z,98782.94
2023-12-09T20:49:33.688Z,98785.94
2023-12-09T20:51:59.873Z,98794.34
2023-12-09T20:54:26.062Z,98801.78
2023-12-09T20:56:52.346Z,98811.84
2023-12-09T20:59:18.503Z,98819.47
2023-12-09T21:01:44.711Z,98821.78
2023-12-09T21:04:10.922Z,98836.22
2023-12-09T21:06:37.165Z,98845.00
2023-12-09T21:09:03.322Z,98840.16
2023-12-09T21:11:31.354Z,98852.03
2023-12-09T21:13:58.746Z,98848.25
2023-12-09T21:16:24.951Z,98843.72
2023-12-09T21:18:51.207Z,98865.09
2023-12-09T21:21:17.514Z,98877.19
2023-12-09T21:23:43.707Z,98876.25
2023-12-09T21:26:09.881Z,98895.13
2023-12-09T21:28:36.105Z,98896.09
2023-12-09T21:31:02.266Z,98903.25
2023-12-09T21:33:28.649Z,98904.72
2023-12-09T21:35:54.962Z,98900.66
2023-12-09T21:38:21.116Z,98905.06
2023-12-09T21:40:47.270Z,98904.94
2023-12-09T21:43:13.441Z,98903.16
2023-12-09T21:45:39.634Z,98911.00
2023-12-09T21:48:06.186Z,98917.16
2023-12-09T21:50:32.446Z,98930.53
2023-12-09T21:52:58.631Z,98936.19
2023-12-09T21:55:24.801Z,98932.41
2023-12-09T21:57:51.032Z,98934.97
2023-12-09T22:00:17.289Z,98942.44
2023-12-09T22:02:43.532Z,98925.97
2023-12-09T22:05:09.760Z,98946.66
2023-12-09T22:07:36.010Z,98957.66
2023-12-09T22:10:02.154Z,98967.44
2023-12-09T22:12:28.514Z,98982.38
2023-12-09T22:14:54.823Z,98978.00
2023-12-09T22:17:21.008Z,98975.16
2023-12-09T22:19:47.185Z,98978.38
2023-12-09T22:22:13.357Z,98976.22
2023-12-09T22:24:39.606Z,98986.16
2023-12-09T22:27:05.921Z,98991.53
2023-12-09T22:29:32.105Z,99007.13
2023-12-09T22:31:58.266Z,98995.44
2023-12-09T22:34:24.483Z,99016.94
2023-12-09T22:36:50.763Z,99023.16
2023-12-09T22:39:17.039Z,99021.72
2023-12-09T22:41:43.263Z,99030.34
2023-12-09T22:44:09.421Z,99055.28
2023-12-09T22:46:35.579Z,99064.91
2023-12-09T22:49:01.914Z,99069.31
2023-12-09T22:51:28.157Z,99074.38
2023-12-09T22:53:54.364Z,99097.09
2023-12-09T22:56:20.500Z,99082.44
2023-12-09T22:58:46.657Z,99103.84
2023-12-09T23:01:12.964Z,99111.38
2023-12-09T23:03:39.291Z,99121.50
2023-12-09T23:06:05.445Z,99130.66
2023-12-09T23:08:31.602Z,99115.84
2023-12-09T23:10:57.755Z,99123.19
2023-12-09T23:13:23.912Z,99131.03
2023-12-09T23:15:50.113Z,99117.66
2023-12-09T23:18:16.415Z,99149.75
2023-12-09T23:20:42.614Z,99141.59
2023-12-09T23:23:08.786Z,99147.13
2023-12-09T23:25:34.940Z,99166.03
2023-12-09T23:28:01.124Z,99155.69
2023-12-09T23:30:27.337Z,99172.31
2023-12-09T23:32:53.579Z,99151.63
2023-12-09T23:35:19.786Z,99177.19
2023-12-09T23:37:45.946Z,99171.97
2023-12-09T23:40:12.116Z,99166.91
2023-12-09T23:42:38.352Z,99176.34
2023-12-09T23:45:04.580Z,99188.75
2023-12-09T23:47:30.806Z,99186.63
2023-12-09T23:49:56.967Z,99209.28
2023-12-09T23:52:23.141Z,99198.16
2023-12-09T23:54:49.372Z,99220.16
2023-12-09T23:57:15.611Z,99218.03
2023-12-09T23:59:41.772Z,99217.84
